Gresham, WI (54128)

8:13 AM CDT on August 30, 2016 (GMT -0500)
Willow Wood | | Change Station
Active Advisory: Special Statement

Elev 810 ft 44.79 °N, 88.58 °W | Updated 2 minutes ago

Overcast
Overcast
69.8 °F
Feels Like 69.8 °F
N
0.0
Wind Variable Wind from North
Gusts 0.6 mph

Today
High -- | Low -- °F
--% Chance of Precip.
Yesterday
High -- | Low -- °F
Precip. -- in
Pressure 30.13 in
Visibility 4.0 miles
Clouds Overcast 200 ft
Dew Point 67 °F
Humidity 91%
Rainfall 0.00 in
Snow Depth Not available.
6:15 AM 7:34 PM
Waning Crescent, 4% visible
METAR KEZS 301255Z AUTO 25005KT 4SM BR OVC002 22/21 A3013 RMK AO2 T02160207
Pressure 30.13 in
Visibility 4.0 miles
Clouds Overcast 200 ft
Dew Point 67 °F
Humidity 91%
Rainfall 0.00 in
Snow Depth Not available.
6:15 AM 7:34 PM
Waning Crescent, 4% visible
METAR KEZS 301255Z AUTO 25005KT 4SM BR OVC002 22/21 A3013 RMK AO2 T02160207

10-Day Weather Forecast

Almanac

Astronomy

Aug. 30, 2016 Rise Set
Actual Time
Civil Twilight
Nautical Twilight
Astronomical Twilight
Moon
Length of Visible Light
Length of Day
Tomorrow will be .
, % of the Moon is Illuminated

Today's Extremes

State Highs State Lows

Community

WunderPhotos

Upload Photos

1,935,831 photos uploaded!

WunderBlog® & News

Nearby

Air Quality

  Air Quality AQ Index Pollutant
Not available.

Snow Depth

Station Depth Elevation

Earthquake Activity

City Distance Mag. Time & Date
Minimum magnitude displayed is 2.5.

Coastal Water Temperatures

Place Temperature

Stations

Nearby Weather Stations

Station Location Temp. Windchill Dew Point Humidity Wind Precip. Elev Updated Type
                   

Watches & Warnings

Special Statement
Issued: 5:05 AM CDT Aug. 30, 2016 – National Weather Service

... Pockets of dense fog early this morning...

A moist surface with dewpoints in the 60s combined with partial
clearing and light winds have led to the formation of fog early
this morning. The fog is locally dense over parts of central
Wisconsin and north central Wisconsin. Locally dense fog may also
form over parts of east central Wisconsin by daybreak.

The dense fog will reduce visibilities to one quarter mile or less
at times. Motorists should be alert for these pockets of dense
fog for the morning commute. The fog should dissipate shortly
after sunrise.



505 am CDT Tue Aug 30 2016

... Pockets of dense fog early this morning...

A moist surface with dewpoints in the 60s combined with partial
clearing and light winds have led to the formation of fog early
this morning. The fog is locally dense over parts of central
Wisconsin and north central Wisconsin. Locally dense fog may also
form over parts of east central Wisconsin by daybreak.

The dense fog will reduce visibilities to one quarter mile or less
at times. Motorists should be alert for these pockets of dense
fog for the morning commute. The fog should dissipate shortly
after sunrise.




Tdh